Time;durP1;ratioP1;P1;durP2;ratioP2;P2;SDS_P1;SDS_P2;PMS_P1;PMS_P2;Temp;Humidity;BMP_temperature;BMP_pressure;BME280_temperature;BME280_humidity;BME280_pressure;Samples;Min_cycle;Max_cycle;Signal;HPM_P1;HPM_P2
2022/08/28 00:02:21;;;;;;;;;;;18.80;99.90;;;;;;5040326;28;19931;-72
2022/08/28 00:04:47;;;;;;;;;;;18.80;99.90;;;;;;5042262;28;20004;-71
2022/08/28 00:07:14;;;;;;;;;;;18.80;99.90;;;;;;5044789;28;19925;-73
2022/08/28 00:09:42;;;;;;;;;;;18.80;99.90;;;;;;5045882;28;20342;-72
2022/08/28 00:12:08;;;;;;;;;;;18.70;99.90;;;;;;5047209;28;19925;-72
2022/08/28 00:14:35;;;;;;;;;;;18.70;99.90;;;;;;5046075;28;19925;-72
2022/08/28 00:17:02;;;;;;;;;;;18.80;99.90;;;;;;5046153;28;20284;-72
2022/08/28 00:19:30;;;;;;;;;;;18.70;99.90;;;;;;5045335;28;19925;-72
2022/08/28 00:21:57;;;;;;;;;;;18.70;99.90;;;;;;5041963;28;19932;-72
2022/08/28 00:24:24;;;;;;;;;;;18.80;99.90;;;;;;5045773;28;20023;-70
2022/08/28 00:29:35;;;;;;;;;;;18.70;99.90;;;;;;5045371;28;19921;-72
2022/08/28 00:32:03;;;;;;;;;;;18.70;99.90;;;;;;5043852;28;19960;-72
2022/08/28 00:34:32;;;;;;;;;;;18.70;99.90;;;;;;5045483;28;19932;-72
2022/08/28 00:36:59;;;;;;;;;;;18.70;99.90;;;;;;5043981;28;19990;-72
2022/08/28 00:39:25;;;;;;;;;;;18.60;99.90;;;;;;5045339;28;19925;-72
2022/08/28 00:41:52;;;;;;;;;;;18.60;99.90;;;;;;5042202;28;19924;-72
2022/08/28 00:44:21;;;;;;;;;;;18.60;99.90;;;;;;5046739;28;19931;-72
2022/08/28 00:46:49;;;;;;;;;;;18.60;99.90;;;;;;5045469;28;19928;-72
2022/08/28 00:49:16;;;;;;;;;;;18.60;99.90;;;;;;5045601;28;19929;-72
2022/08/28 00:54:31;;;;;;;;;;;18.50;99.90;;;;;;5043724;28;19932;-72
2022/08/28 00:56:59;;;;;;;;;;;18.50;99.90;;;;;;5038041;28;19924;-73
2022/08/28 00:59:26;;;;;;;;;;;18.50;99.90;;;;;;5044619;28;20344;-72
2022/08/28 01:01:54;;;;;;;;;;;18.50;99.90;;;;;;5044892;28;20324;-72
2022/08/28 01:04:22;;;;;;;;;;;18.40;99.90;;;;;;5047153;28;20285;-72
2022/08/28 01:06:52;;;;;;;;;;;18.40;99.90;;;;;;5038167;28;19924;-72
2022/08/28 01:09:19;;;;;;;;;;;18.40;99.90;;;;;;5044667;28;20403;-72
2022/08/28 01:11:47;;;;;;;;;;;18.30;99.90;;;;;;5045201;28;19929;-72
2022/08/28 01:14:15;;;;;;;;;;;18.40;99.90;;;;;;5046855;28;20353;-72
2022/08/28 01:16:42;;;;;;;;;;;18.30;99.90;;;;;;5047589;28;19933;-72
2022/08/28 01:19:12;;;;;;;;;;;18.30;99.90;;;;;;5037462;28;19926;-72
2022/08/28 01:21:41;;;;;;;;;;;18.30;99.90;;;;;;5044281;28;19925;-72
2022/08/28 01:24:13;;;;;;;;;;;18.30;99.90;;;;;;5039761;28;20308;-72
2022/08/28 01:26:40;;;;;;;;;;;18.30;99.90;;;;;;5059233;28;19925;-72
2022/08/28 01:29:08;;;;;;;;;;;18.30;99.90;;;;;;5044319;28;19928;-72
2022/08/28 01:31:35;;;;;;;;;;;18.20;99.90;;;;;;5039065;28;20393;-72
2022/08/28 01:34:03;;;;;;;;;;;18.20;99.90;;;;;;5040794;28;19966;-72
2022/08/28 01:36:29;;;;;;;;;;;18.20;99.90;;;;;;5044379;28;19928;-71
2022/08/28 01:39:00;;;;;;;;;;;18.20;99.90;;;;;;5044016;28;19932;-72
2022/08/28 01:41:29;;;;;;;;;;;18.10;99.90;;;;;;5050569;28;19925;-71
2022/08/28 01:43:56;;;;;;;;;;;18.10;99.90;;;;;;5040663;28;19932;-72
2022/08/28 01:46:23;;;;;;;;;;;18.10;99.90;;;;;;5047335;28;19925;-72
2022/08/28 01:48:50;;;;;;;;;;;18.00;99.90;;;;;;5043810;28;19933;-72
2022/08/28 01:51:17;;;;;;;;;;;18.00;99.90;;;;;;5044158;28;20400;-72
2022/08/28 01:53:43;;;;;;;;;;;17.90;99.90;;;;;;5048766;28;20305;-72
2022/08/28 01:56:12;;;;;;;;;;;17.90;99.90;;;;;;5043677;28;19955;-71
2022/08/28 01:58:41;;;;;;;;;;;17.90;99.90;;;;;;5037098;28;19966;-72
2022/08/28 02:01:09;;;;;;;;;;;17.90;99.90;;;;;;5043734;28;20466;-72
2022/08/28 02:03:36;;;;;;;;;;;17.80;99.90;;;;;;5049467;28;20024;-72
2022/08/28 02:06:02;;;;;;;;;;;17.80;99.90;;;;;;5048201;28;20342;-72
2022/08/28 02:08:29;;;;;;;;;;;17.80;99.90;;;;;;5040757;28;19986;-72
2022/08/28 02:10:56;;;;;;;;;;;17.80;99.90;;;;;;5043628;28;19928;-72
2022/08/28 02:13:23;;;;;;;;;;;17.70;99.90;;;;;;5043760;28;19928;-72
2022/08/28 02:15:51;;;;;;;;;;;17.60;99.90;;;;;;5042791;28;19932;-72
2022/08/28 02:18:18;;;;;;;;;;;17.60;99.90;;;;;;5039058;28;19925;-73
2022/08/28 02:20:45;;;;;;;;;;;17.50;99.90;;;;;;5031978;28;20012;-73
2022/08/28 02:23:12;;;;;;;;;;;17.40;99.90;;;;;;5039957;28;19971;-72
2022/08/28 02:25:39;;;;;;;;;;;17.40;99.90;;;;;;5039460;28;20309;-72
2022/08/28 02:28:06;;;;;;;;;;;17.30;99.90;;;;;;5041736;28;19948;-72
2022/08/28 02:30:33;;;;;;;;;;;17.30;99.90;;;;;;5039182;28;19928;-72
2022/08/28 02:33:01;;;;;;;;;;;17.30;99.90;;;;;;5036885;28;19932;-73
2022/08/28 02:35:30;;;;;;;;;;;17.20;99.90;;;;;;5039140;28;20320;-72
2022/08/28 02:37:57;;;;;;;;;;;17.10;99.90;;;;;;5033559;28;19925;-72
2022/08/28 02:40:24;;;;;;;;;;;17.10;99.90;;;;;;5031889;28;19929;-72
2022/08/28 02:42:51;;;;;;;;;;;17.00;99.90;;;;;;5041014;28;20277;-72
2022/08/28 02:45:18;;;;;;;;;;;17.00;99.90;;;;;;5038610;28;20342;-72
2022/08/28 02:47:46;;;;;;;;;;;16.90;99.90;;;;;;5043376;28;19925;-72
2022/08/28 02:50:15;;;;;;;;;;;16.90;99.90;;;;;;5039692;28;19925;-72
2022/08/28 02:52:43;;;;;;;;;;;16.80;99.90;;;;;;5041631;28;19925;-71
2022/08/28 02:55:11;;;;;;;;;;;16.80;99.90;;;;;;5039863;28;20015;-71
2022/08/28 02:57:38;;;;;;;;;;;16.80;99.90;;;;;;5043946;28;19932;-72
2022/08/28 03:00:06;;;;;;;;;;;16.80;99.90;;;;;;5037529;28;20024;-71
2022/08/28 03:02:32;;;;;;;;;;;16.80;99.90;;;;;;5045135;28;19932;-72
2022/08/28 03:04:59;;;;;;;;;;;16.70;99.90;;;;;;5043945;28;20016;-72
2022/08/28 03:07:28;;;;;;;;;;;16.70;99.90;;;;;;5040113;28;19933;-72
2022/08/28 03:09:55;;;;;;;;;;;16.60;99.90;;;;;;5052080;28;19971;-72
2022/08/28 03:12:23;;;;;;;;;;;16.60;99.90;;;;;;5062732;28;20339;-72
2022/08/28 03:14:50;;;;;;;;;;;16.50;99.90;;;;;;5045347;28;19936;-72
2022/08/28 03:17:17;;;;;;;;;;;16.50;99.90;;;;;;5039805;28;19925;-72
2022/08/28 03:19:43;;;;;;;;;;;16.50;99.90;;;;;;5043555;28;21014;-72
2022/08/28 03:22:10;;;;;;;;;;;16.50;99.90;;;;;;5038813;28;19925;-72
2022/08/28 03:24:37;;;;;;;;;;;16.40;99.90;;;;;;5039334;28;19925;-72
2022/08/28 03:27:04;;;;;;;;;;;16.30;99.90;;;;;;5039911;28;20024;-72
2022/08/28 03:29:31;;;;;;;;;;;16.30;99.90;;;;;;5037373;28;19940;-72
2022/08/28 03:31:59;;;;;;;;;;;16.30;99.90;;;;;;5039723;28;19982;-72
2022/08/28 03:34:25;;;;;;;;;;;16.30;99.90;;;;;;5038525;28;19932;-74
2022/08/28 03:36:52;;;;;;;;;;;16.30;99.90;;;;;;5042445;28;20324;-72
2022/08/28 03:39:19;;;;;;;;;;;16.30;99.90;;;;;;5040394;28;19925;-72
2022/08/28 03:41:47;;;;;;;;;;;16.30;99.90;;;;;;5039214;28;19924;-72
2022/08/28 03:44:14;;;;;;;;;;;16.30;99.90;;;;;;5041790;28;20323;-72
2022/08/28 03:46:41;;;;;;;;;;;16.30;99.90;;;;;;5042912;28;19925;-72
2022/08/28 03:49:08;;;;;;;;;;;16.20;99.90;;;;;;5038722;28;19925;-72
2022/08/28 03:51:35;;;;;;;;;;;16.20;99.90;;;;;;5041729;28;19933;-72
2022/08/28 03:54:02;;;;;;;;;;;16.10;99.90;;;;;;5041398;28;19925;-72
2022/08/28 03:56:30;;;;;;;;;;;16.10;99.90;;;;;;5039213;28;20091;-72
2022/08/28 03:59:00;;;;;;;;;;;16.10;99.90;;;;;;5037802;28;19948;-72
2022/08/28 04:01:27;;;;;;;;;;;16.00;99.90;;;;;;5040486;28;19929;-72
2022/08/28 04:03:55;;;;;;;;;;;16.00;99.90;;;;;;5040778;28;20539;-72
2022/08/28 04:06:22;;;;;;;;;;;15.90;99.90;;;;;;5036444;28;20361;-71
2022/08/28 04:08:49;;;;;;;;;;;15.90;99.90;;;;;;5038009;28;19929;-72
2022/08/28 04:11:17;;;;;;;;;;;15.90;99.90;;;;;;5038022;28;19925;-72
2022/08/28 04:13:43;;;;;;;;;;;15.90;99.90;;;;;;5039034;28;19925;-72
2022/08/28 04:16:12;;;;;;;;;;;15.90;99.90;;;;;;5040922;28;19925;-72
2022/08/28 04:18:41;;;;;;;;;;;15.90;99.90;;;;;;5035369;28;19925;-72
2022/08/28 04:21:09;;;;;;;;;;;15.90;99.90;;;;;;5039234;28;19933;-71
2022/08/28 04:23:36;;;;;;;;;;;15.90;99.90;;;;;;5038736;28;19932;-71
2022/08/28 04:26:04;;;;;;;;;;;15.80;99.90;;;;;;5037191;28;20035;-72
2022/08/28 04:28:31;;;;;;;;;;;15.90;99.90;;;;;;5034997;28;19929;-72
2022/08/28 04:30:58;;;;;;;;;;;15.90;99.90;;;;;;5039164;28;19924;-72
2022/08/28 04:33:27;;;;;;;;;;;15.90;99.90;;;;;;5033996;28;19983;-72
2022/08/28 04:35:54;;;;;;;;;;;15.90;99.90;;;;;;5039915;28;19948;-72
2022/08/28 04:38:21;;;;;;;;;;;15.90;99.90;;;;;;5036199;28;19925;-72
2022/08/28 04:40:48;;;;;;;;;;;15.90;99.90;;;;;;5033188;28;19975;-72
2022/08/28 04:43:15;;;;;;;;;;;15.90;99.90;;;;;;5037621;28;20403;-71
2022/08/28 04:45:42;;;;;;;;;;;15.90;99.90;;;;;;5047030;28;19925;-71
2022/08/28 04:48:11;;;;;;;;;;;15.90;99.90;;;;;;5044608;28;19929;-72
2022/08/28 04:50:41;;;;;;;;;;;16.00;99.90;;;;;;5042402;28;19925;-73
2022/08/28 04:53:08;;;;;;;;;;;16.00;99.90;;;;;;5042174;28;19925;-72
2022/08/28 04:55:34;;;;;;;;;;;16.00;99.90;;;;;;5042797;28;20400;-72
2022/08/28 04:58:01;;;;;;;;;;;16.00;99.90;;;;;;5047588;28;19928;-71
2022/08/28 05:00:28;;;;;;;;;;;16.00;99.90;;;;;;5041950;28;19925;-71
2022/08/28 05:02:55;;;;;;;;;;;16.10;99.90;;;;;;5030313;28;19929;-71
2022/08/28 05:05:21;;;;;;;;;;;16.00;99.90;;;;;;5042055;28;19932;-71
2022/08/28 05:07:50;;;;;;;;;;;16.00;99.90;;;;;;5038225;28;19925;-71
2022/08/28 05:10:16;;;;;;;;;;;16.00;99.90;;;;;;5042102;28;19925;-71
2022/08/28 05:12:43;;;;;;;;;;;16.00;99.90;;;;;;5043286;28;19924;-71
2022/08/28 05:15:10;;;;;;;;;;;16.10;99.90;;;;;;5040035;28;19974;-71
2022/08/28 05:17:37;;;;;;;;;;;16.00;99.90;;;;;;5035386;28;20303;-70
2022/08/28 05:20:04;;;;;;;;;;;16.10;99.90;;;;;;5033355;28;20277;-71
2022/08/28 05:22:32;;;;;;;;;;;16.10;99.90;;;;;;5035957;28;20396;-71
2022/08/28 05:25:00;;;;;;;;;;;16.10;99.90;;;;;;5045281;28;20434;-71
2022/08/28 05:27:27;;;;;;;;;;;16.20;99.90;;;;;;5046993;28;19925;-68
2022/08/28 05:29:54;;;;;;;;;;;16.20;99.90;;;;;;5041475;28;19928;-71
2022/08/28 05:32:21;;;;;;;;;;;16.10;99.90;;;;;;5043605;28;20289;-71
2022/08/28 05:34:48;;;;;;;;;;;16.20;99.90;;;;;;5046587;28;19925;-71
2022/08/28 05:37:15;;;;;;;;;;;16.20;99.90;;;;;;5041130;28;19928;-70
2022/08/28 05:39:42;;;;;;;;;;;16.20;99.90;;;;;;5026223;28;19925;-71
2022/08/28 05:42:10;;;;;;;;;;;16.20;99.90;;;;;;5042181;28;19936;-71
2022/08/28 05:44:37;;;;;;;;;;;16.20;99.90;;;;;;5049890;28;19929;-71
2022/08/28 05:47:04;;;;;;;;;;;16.20;99.90;;;;;;5045838;28;19929;-71
2022/08/28 05:49:31;;;;;;;;;;;16.20;99.90;;;;;;5036163;28;19925;-71
2022/08/28 05:51:57;;;;;;;;;;;16.20;99.90;;;;;;5050089;28;19925;-71
2022/08/28 05:54:24;;;;;;;;;;;16.20;99.90;;;;;;5042335;28;19928;-71
2022/08/28 05:56:51;;;;;;;;;;;16.30;99.90;;;;;;5050326;28;19932;-71
2022/08/28 05:59:19;;;;;;;;;;;16.30;99.90;;;;;;5043487;28;19925;-71
2022/08/28 06:01:46;;;;;;;;;;;16.30;99.90;;;;;;5043828;28;19928;-70
2022/08/28 06:04:14;;;;;;;;;;;16.30;99.90;;;;;;5046618;28;20338;-71
2022/08/28 06:06:41;;;;;;;;;;;16.40;99.90;;;;;;5040901;28;19925;-71
2022/08/28 06:09:09;;;;;;;;;;;16.40;99.90;;;;;;5046261;28;19925;-71
2022/08/28 06:11:37;;;;;;;;;;;16.40;99.90;;;;;;5040447;28;19933;-70
2022/08/28 06:14:08;;;;;;;;;;;16.40;99.90;;;;;;5047596;28;19925;-71
2022/08/28 06:16:37;;;;;;;;;;;16.50;99.90;;;;;;5040191;28;19929;-71
2022/08/28 06:19:04;;;;;;;;;;;16.50;99.90;;;;;;5043250;28;19978;-71
2022/08/28 06:21:32;;;;;;;;;;;16.60;99.90;;;;;;5040873;28;19932;-70
2022/08/28 06:23:59;;;;;;;;;;;16.70;99.90;;;;;;5043986;28;19925;-71
2022/08/28 06:26:26;;;;;;;;;;;16.70;99.90;;;;;;5045371;28;19939;-70
2022/08/28 06:28:53;;;;;;;;;;;16.80;99.90;;;;;;5044713;28;19925;-69
2022/08/28 06:31:20;;;;;;;;;;;16.90;99.90;;;;;;5032495;28;19929;-72
2022/08/28 06:33:48;;;;;;;;;;;17.00;99.90;;;;;;5033571;28;19929;-71
2022/08/28 06:36:15;;;;;;;;;;;17.00;99.90;;;;;;5041971;28;19925;-70
2022/08/28 06:38:45;;;;;;;;;;;17.00;99.90;;;;;;5040432;28;19931;-71
2022/08/28 06:41:12;;;;;;;;;;;17.10;99.90;;;;;;5037236;28;19944;-71
2022/08/28 06:43:39;;;;;;;;;;;17.20;99.90;;;;;;5040306;28;19925;-71
2022/08/28 06:46:06;;;;;;;;;;;17.20;99.90;;;;;;5044178;28;20330;-71
2022/08/28 06:48:33;;;;;;;;;;;17.30;99.90;;;;;;5039851;28;19947;-70
2022/08/28 06:51:01;;;;;;;;;;;17.40;99.90;;;;;;5038943;28;19960;-70
2022/08/28 06:53:29;;;;;;;;;;;17.40;99.90;;;;;;5040937;28;19959;-71
2022/08/28 06:55:57;;;;;;;;;;;17.50;99.90;;;;;;5038533;28;19925;-70
2022/08/28 06:58:23;;;;;;;;;;;17.50;99.90;;;;;;5041720;28;19928;-71
2022/08/28 07:00:51;;;;;;;;;;;17.60;99.90;;;;;;5038742;28;19978;-71
2022/08/28 07:03:17;;;;;;;;;;;17.70;99.90;;;;;;5043066;28;19925;-71
2022/08/28 07:05:45;;;;;;;;;;;17.80;99.90;;;;;;5041610;28;19929;-70
2022/08/28 07:08:13;;;;;;;;;;;17.70;99.90;;;;;;5039950;28;19925;-71
2022/08/28 07:10:40;;;;;;;;;;;17.80;99.90;;;;;;5040290;28;20060;-78
2022/08/28 07:13:06;;;;;;;;;;;17.90;99.90;;;;;;5041012;28;20370;-79
2022/08/28 07:15:33;;;;;;;;;;;18.10;99.90;;;;;;5042563;28;19925;-71
2022/08/28 07:18:00;;;;;;;;;;;18.20;99.90;;;;;;5038740;28;19928;-70
2022/08/28 07:20:27;;;;;;;;;;;18.40;99.90;;;;;;5042504;28;20362;-71
2022/08/28 07:22:53;;;;;;;;;;;18.50;99.90;;;;;;5042450;28;19932;-74
2022/08/28 07:25:21;;;;;;;;;;;18.30;99.90;;;;;;5039471;28;20388;-71
2022/08/28 07:27:48;;;;;;;;;;;18.40;99.90;;;;;;5041613;28;19998;-71
2022/08/28 07:30:15;;;;;;;;;;;18.40;99.90;;;;;;5042100;28;19964;-71
2022/08/28 07:32:42;;;;;;;;;;;18.50;99.90;;;;;;5036271;28;19931;-71
2022/08/28 07:35:09;;;;;;;;;;;18.80;99.90;;;;;;5031652;28;19931;-72
2022/08/28 07:37:36;;;;;;;;;;;18.70;99.90;;;;;;5032249;28;19924;-71
2022/08/28 07:40:03;;;;;;;;;;;18.90;99.90;;;;;;5037167;28;19956;-71
2022/08/28 07:45:15;;;;;;;;;;;18.90;99.90;;;;;;5030685;28;20162;-72
2022/08/28 07:47:42;;;;;;;;;;;19.00;99.90;;;;;;5039059;28;20291;-71
2022/08/28 07:50:09;;;;;;;;;;;19.00;99.90;;;;;;5035017;28;19940;-71
2022/08/28 07:52:36;;;;;;;;;;;19.10;99.90;;;;;;5036913;28;19978;-71
2022/08/28 07:55:04;;;;;;;;;;;19.20;99.90;;;;;;5034024;28;19925;-71
2022/08/28 07:57:33;;;;;;;;;;;19.30;99.90;;;;;;5033144;28;19968;-70
2022/08/28 07:59:59;;;;;;;;;;;19.10;99.90;;;;;;5035775;28;19929;-71
2022/08/28 08:02:26;;;;;;;;;;;19.10;99.90;;;;;;5033289;28;20399;-72
2022/08/28 08:04:53;;;;;;;;;;;19.10;99.90;;;;;;5040634;28;19925;-72
2022/08/28 08:07:20;;;;;;;;;;;19.10;99.90;;;;;;5039253;28;19925;-69
2022/08/28 08:09:47;;;;;;;;;;;19.20;99.90;;;;;;5040750;28;19932;-71
2022/08/28 08:12:14;;;;;;;;;;;19.30;99.90;;;;;;5040798;28;20458;-70
2022/08/28 08:14:43;;;;;;;;;;;19.30;99.90;;;;;;5039341;28;19925;-71
2022/08/28 08:17:10;;;;;;;;;;;19.30;99.90;;;;;;5037894;28;20019;-69
2022/08/28 08:19:37;;;;;;;;;;;19.40;99.90;;;;;;5029208;28;19929;-69
2022/08/28 08:22:03;;;;;;;;;;;19.40;99.90;;;;;;5033330;28;19933;-71
2022/08/28 08:24:30;;;;;;;;;;;19.40;99.90;;;;;;5036033;28;19929;-70
2022/08/28 08:27:00;;;;;;;;;;;19.30;99.90;;;;;;5036219;28;19975;-71
2022/08/28 08:29:28;;;;;;;;;;;19.30;99.90;;;;;;5041712;28;19925;-70
2022/08/28 08:31:57;;;;;;;;;;;19.30;99.90;;;;;;5042232;28;19978;-70
2022/08/28 08:34:24;;;;;;;;;;;19.40;99.90;;;;;;5043737;28;19928;-70
2022/08/28 08:36:51;;;;;;;;;;;19.40;99.90;;;;;;5039996;28;19932;-71
2022/08/28 08:39:18;;;;;;;;;;;19.20;99.90;;;;;;5044099;28;19928;-70
2022/08/28 08:41:47;;;;;;;;;;;19.20;99.90;;;;;;5041877;28;19932;-70
2022/08/28 08:44:21;;;;;;;;;;;19.20;99.90;;;;;;5045224;28;20285;-70
2022/08/28 08:46:52;;;;;;;;;;;19.20;99.90;;;;;;5045571;28;19933;-70
2022/08/28 08:49:21;;;;;;;;;;;19.30;99.90;;;;;;5040749;28;20363;-70
2022/08/28 08:51:50;;;;;;;;;;;19.30;99.90;;;;;;5042849;28;19925;-70
2022/08/28 08:54:19;;;;;;;;;;;19.40;99.90;;;;;;5041634;28;19924;-70
2022/08/28 08:56:46;;;;;;;;;;;19.40;99.90;;;;;;5051114;28;19924;-70
2022/08/28 08:59:15;;;;;;;;;;;19.50;99.90;;;;;;5046437;28;19924;-70
2022/08/28 09:01:44;;;;;;;;;;;19.60;99.90;;;;;;5050895;28;19925;-70
2022/08/28 09:04:21;;;;;;;;;;;19.70;99.90;;;;;;5039337;28;19933;-70
2022/08/28 09:06:51;;;;;;;;;;;19.80;99.90;;;;;;5041009;28;19925;-70
2022/08/28 09:09:21;;;;;;;;;;;19.80;99.90;;;;;;5047533;28;19932;-70
2022/08/28 09:11:50;;;;;;;;;;;19.80;99.90;;;;;;5037832;28;19928;-70
2022/08/28 09:14:20;;;;;;;;;;;19.80;99.90;;;;;;5041836;28;20380;-71
2022/08/28 09:16:47;;;;;;;;;;;19.80;99.90;;;;;;5044838;28;19924;-71
2022/08/28 09:19:17;;;;;;;;;;;19.70;99.90;;;;;;5052472;28;19924;-69
2022/08/28 09:21:44;;;;;;;;;;;19.70;99.90;;;;;;5044785;28;19925;-73
2022/08/28 09:24:17;;;;;;;;;;;19.80;99.90;;;;;;5045081;28;19929;-72
2022/08/28 09:26:50;;;;;;;;;;;20.00;99.90;;;;;;5042977;28;19924;-71
2022/08/28 09:29:18;;;;;;;;;;;20.10;99.90;;;;;;5044464;28;20359;-74
2022/08/28 09:31:45;;;;;;;;;;;20.20;99.90;;;;;;5044588;28;19929;-73
2022/08/28 09:34:33;;;;;;;;;;;20.30;99.90;;;;;;5039226;28;19968;-71
2022/08/28 09:37:00;;;;;;;;;;;20.30;99.90;;;;;;5035955;28;19928;-72
2022/08/28 09:39:30;;;;;;;;;;;20.30;99.90;;;;;;5043467;28;19962;-71
2022/08/28 09:45:00;;;;;;;;;;;20.60;99.90;;;;;;5038803;28;19921;-72
2022/08/28 09:47:38;;;;;;;;;;;20.70;99.90;;;;;;5042941;28;20331;-72
2022/08/28 09:50:27;;;;;;;;;;;20.80;99.90;;;;;;5037922;28;19925;-71
2022/08/28 09:52:55;;;;;;;;;;;20.80;99.90;;;;;;5066447;28;19925;-71
2022/08/28 09:55:27;;;;;;;;;;;20.80;99.90;;;;;;5040459;28;19925;-71
2022/08/28 09:57:54;;;;;;;;;;;20.90;99.90;;;;;;5047086;28;19932;-72
2022/08/28 10:00:21;;;;;;;;;;;20.90;99.90;;;;;;5040982;28;19925;-70
2022/08/28 10:02:51;;;;;;;;;;;21.00;99.90;;;;;;5043771;28;19924;-72
2022/08/28 10:05:22;;;;;;;;;;;21.00;99.90;;;;;;5042613;28;19932;-69
2022/08/28 10:07:50;;;;;;;;;;;21.10;99.90;;;;;;5038914;28;19929;-70
2022/08/28 10:10:20;;;;;;;;;;;21.20;99.90;;;;;;5036068;28;19944;-71
2022/08/28 10:12:58;;;;;;;;;;;21.30;99.90;;;;;;5035654;28;19928;-71
2022/08/28 10:15:28;;;;;;;;;;;21.40;99.90;;;;;;5043726;28;19925;-71
2022/08/28 10:18:03;;;;;;;;;;;21.50;99.90;;;;;;5031775;28;19929;-71
2022/08/28 10:20:33;;;;;;;;;;;21.60;99.90;;;;;;5053664;28;20355;-72
2022/08/28 10:23:03;;;;;;;;;;;21.70;99.90;;;;;;5042047;28;19983;-71
2022/08/28 10:25:32;;;;;;;;;;;21.70;99.90;;;;;;5038909;28;19924;-70
2022/08/28 10:28:16;;;;;;;;;;;21.90;99.90;;;;;;5043666;28;19933;-71
2022/08/28 10:30:46;;;;;;;;;;;21.90;99.90;;;;;;5039364;28;20502;-71
2022/08/28 10:33:18;;;;;;;;;;;22.00;99.90;;;;;;5038042;28;20404;-72
2022/08/28 10:35:49;;;;;;;;;;;22.10;99.90;;;;;;5033034;28;19940;-71
2022/08/28 10:38:17;;;;;;;;;;;22.10;99.90;;;;;;5034922;28;20297;-71
2022/08/28 10:40:51;;;;;;;;;;;22.20;99.90;;;;;;5028338;28;20339;-71
2022/08/28 10:43:21;;;;;;;;;;;22.40;99.90;;;;;;5027851;28;20388;-70
2022/08/28 10:45:48;;;;;;;;;;;22.60;99.90;;;;;;5024013;28;20381;-70
2022/08/28 10:48:18;;;;;;;;;;;22.70;99.90;;;;;;5027701;28;19937;-70
2022/08/28 10:50:47;;;;;;;;;;;22.80;99.90;;;;;;5031548;28;20021;-71
2022/08/28 10:53:15;;;;;;;;;;;22.80;99.90;;;;;;5037139;28;19932;-71
2022/08/28 10:55:46;;;;;;;;;;;22.70;99.90;;;;;;5036905;28;19925;-72
2022/08/28 10:58:15;;;;;;;;;;;22.80;99.90;;;;;;5026022;28;19925;-71
2022/08/28 11:00:44;;;;;;;;;;;23.00;99.90;;;;;;5036743;28;20403;-72
2022/08/28 11:03:12;;;;;;;;;;;23.20;99.90;;;;;;5039134;28;19928;-71
2022/08/28 11:05:40;;;;;;;;;;;23.10;99.90;;;;;;5036901;28;19925;-72
2022/08/28 11:08:11;;;;;;;;;;;23.20;99.90;;;;;;5031401;28;19971;-72
2022/08/28 11:10:45;;;;;;;;;;;23.30;99.90;;;;;;5040420;28;19924;-72
2022/08/28 11:13:32;;;;;;;;;;;23.40;99.90;;;;;;5034108;28;20316;-78
2022/08/28 11:16:00;;;;;;;;;;;23.70;99.90;;;;;;5035036;28;19925;-71
2022/08/28 11:18:39;;;;;;;;;;;23.90;99.90;;;;;;5027600;28;19925;-71
2022/08/28 11:21:09;;;;;;;;;;;24.20;99.90;;;;;;5046125;28;19932;-69
2022/08/28 11:23:38;;;;;;;;;;;24.30;99.90;;;;;;5037783;28;19929;-75
2022/08/28 11:26:09;;;;;;;;;;;24.40;99.90;;;;;;5038650;28;19975;-72
2022/08/28 11:28:43;;;;;;;;;;;24.60;99.90;;;;;;5042796;28;19928;-72
2022/08/28 11:31:29;;;;;;;;;;;25.00;99.90;;;;;;5028715;28;19932;-72
2022/08/28 11:33:57;;;;;;;;;;;27.90;99.90;;;;;;5036537;28;19925;-72
2022/08/28 11:36:43;;;;;;;;;;;30.70;99.90;;;;;;5043276;28;19932;-71
2022/08/28 11:39:18;;;;;;;;;;;31.80;99.90;;;;;;5029761;28;20344;-72
2022/08/28 11:42:00;;;;;;;;;;;32.70;99.90;;;;;;5038138;28;20308;-71
2022/08/28 11:44:28;;;;;;;;;;;33.00;99.90;;;;;;5036106;28;19925;-72
2022/08/28 11:47:16;;;;;;;;;;;34.30;99.90;;;;;;5039387;28;19925;-70
2022/08/28 11:49:44;;;;;;;;;;;35.20;99.90;;;;;;5029956;28;19939;-70
2022/08/28 11:52:29;;;;;;;;;;;34.50;99.90;;;;;;5026098;28;19933;-68
2022/08/28 11:55:00;;;;;;;;;;;34.90;99.90;;;;;;5029041;28;20391;-71
2022/08/28 11:57:39;;;;;;;;;;;35.60;99.90;;;;;;5026031;28;20020;-70
2022/08/28 12:00:08;;;;;;;;;;;36.30;99.50;;;;;;5023536;28;19925;-71
2022/08/28 12:02:46;;;;;;;;;;;37.00;98.20;;;;;;5036590;28;20384;-73
2022/08/28 12:05:27;;;;;;;;;;;36.20;97.50;;;;;;5035079;28;20299;-68
2022/08/28 12:07:54;;;;;;;;;;;36.30;97.30;;;;;;5041536;28;19967;-68
2022/08/28 12:10:36;;;;;;;;;;;36.60;96.60;;;;;;5029547;28;19982;-70
2022/08/28 12:13:03;;;;;;;;;;;36.90;96.70;;;;;;5033078;28;19924;-67
2022/08/28 12:15:37;;;;;;;;;;;37.40;95.80;;;;;;5048831;28;20373;-70
2022/08/28 12:18:06;;;;;;;;;;;37.40;95.30;;;;;;5047808;28;19924;-68
2022/08/28 12:20:48;;;;;;;;;;;36.90;95.00;;;;;;5040059;28;19925;-68
2022/08/28 12:23:39;;;;;;;;;;;36.70;95.40;;;;;;5032804;28;19992;-69
2022/08/28 12:26:10;;;;;;;;;;;36.30;94.90;;;;;;5042219;28;19925;-68
2022/08/28 12:28:43;;;;;;;;;;;35.30;95.30;;;;;;5045655;28;19925;-68
2022/08/28 12:34:12;;;;;;;;;;;35.70;94.90;;;;;;5033801;28;19920;-70
2022/08/28 12:36:39;;;;;;;;;;;35.90;95.00;;;;;;5045513;28;19925;-70
2022/08/28 12:39:06;;;;;;;;;;;36.40;94.90;;;;;;5046038;28;19925;-71
2022/08/28 12:41:33;;;;;;;;;;;36.50;94.30;;;;;;5043047;28;19925;-71
2022/08/28 12:44:00;;;;;;;;;;;36.40;94.80;;;;;;5044752;28;19951;-72
2022/08/28 12:46:28;;;;;;;;;;;37.40;93.20;;;;;;5043514;28;19925;-69
2022/08/28 12:48:57;;;;;;;;;;;38.10;93.20;;;;;;5044258;28;19932;-72
2022/08/28 12:51:26;;;;;;;;;;;37.10;93.00;;;;;;5044116;28;19979;-72
2022/08/28 12:53:54;;;;;;;;;;;36.30;93.00;;;;;;5044172;28;19925;-71
2022/08/28 12:56:22;;;;;;;;;;;35.80;93.40;;;;;;5042400;28;19925;-74
2022/08/28 12:58:49;;;;;;;;;;;34.90;93.30;;;;;;5047411;28;19929;-72
2022/08/28 13:01:23;;;;;;;;;;;34.80;93.60;;;;;;5045055;28;20467;-71
2022/08/28 13:03:51;;;;;;;;;;;35.10;93.70;;;;;;5045814;28;19971;-72
2022/08/28 13:06:23;;;;;;;;;;;35.60;93.80;;;;;;5043548;28;19928;-72
2022/08/28 13:08:54;;;;;;;;;;;36.90;93.20;;;;;;5040517;28;19933;-71
2022/08/28 13:11:20;;;;;;;;;;;35.60;92.90;;;;;;5044205;28;19924;-72
2022/08/28 13:13:49;;;;;;;;;;;35.50;93.00;;;;;;5041623;28;19924;-72
2022/08/28 13:16:31;;;;;;;;;;;36.80;93.00;;;;;;5044473;28;19928;-72
2022/08/28 13:19:10;;;;;;;;;;;37.60;92.80;;;;;;5039963;28;19931;-72
2022/08/28 13:21:50;;;;;;;;;;;37.10;92.40;;;;;;5038450;28;19944;-73
2022/08/28 13:24:26;;;;;;;;;;;36.30;92.20;;;;;;5038152;28;19936;-72
2022/08/28 13:27:00;;;;;;;;;;;36.10;92.20;;;;;;5041989;28;19932;-73
2022/08/28 13:29:27;;;;;;;;;;;36.00;92.30;;;;;;5039239;28;19948;-73
2022/08/28 13:31:55;;;;;;;;;;;36.40;92.20;;;;;;5043564;28;19925;-73
2022/08/28 13:34:24;;;;;;;;;;;37.70;92.00;;;;;;5040007;28;19964;-75
2022/08/28 13:36:52;;;;;;;;;;;37.50;91.00;;;;;;5040544;28;19925;-72
2022/08/28 13:39:20;;;;;;;;;;;36.50;91.50;;;;;;5042127;28;19925;-69
2022/08/28 13:41:49;;;;;;;;;;;36.00;91.80;;;;;;5051502;28;19925;-73
2022/08/28 13:44:27;;;;;;;;;;;35.40;91.60;;;;;;5044117;28;19982;-73
2022/08/28 13:46:53;;;;;;;;;;;35.20;91.80;;;;;;5040475;28;19925;-73
2022/08/28 13:49:20;;;;;;;;;;;35.30;91.90;;;;;;5041213;28;19928;-73
2022/08/28 13:51:48;;;;;;;;;;;34.70;92.20;;;;;;5041848;28;19925;-72
2022/08/28 13:54:15;;;;;;;;;;;34.50;92.00;;;;;;5041930;28;19959;-73
2022/08/28 13:56:42;;;;;;;;;;;35.30;91.90;;;;;;5043792;28;19929;-72
2022/08/28 13:59:10;;;;;;;;;;;36.00;92.00;;;;;;5043577;28;20316;-68
2022/08/28 14:04:22;;;;;;;;;;;35.00;91.20;;;;;;5029539;28;19931;-77
2022/08/28 14:06:49;;;;;;;;;;;35.70;91.50;;;;;;5045030;28;19929;-71
2022/08/28 14:09:16;;;;;;;;;;;36.60;90.80;;;;;;5043935;28;20276;-69
2022/08/28 14:11:43;;;;;;;;;;;37.30;91.20;;;;;;5045301;28;19929;-69
2022/08/28 14:14:11;;;;;;;;;;;36.70;90.50;;;;;;5034233;28;20311;-69
2022/08/28 14:16:38;;;;;;;;;;;36.10;90.50;;;;;;5041955;28;19925;-72
2022/08/28 14:19:05;;;;;;;;;;;35.90;90.90;;;;;;5042541;28;19925;-72
2022/08/28 14:21:32;;;;;;;;;;;35.70;91.20;;;;;;5041722;28;19983;-72
2022/08/28 14:24:00;;;;;;;;;;;36.00;91.00;;;;;;5047408;28;19929;-70
2022/08/28 14:26:27;;;;;;;;;;;36.40;90.90;;;;;;5045843;28;20392;-70
2022/08/28 14:28:54;;;;;;;;;;;36.30;90.80;;;;;;5036169;28;20408;-70
2022/08/28 14:31:22;;;;;;;;;;;35.20;90.70;;;;;;5035381;28;20035;-73
2022/08/28 14:33:49;;;;;;;;;;;34.50;91.10;;;;;;5038643;28;19925;-73
2022/08/28 14:36:16;;;;;;;;;;;34.10;91.10;;;;;;5045033;28;19924;-74
2022/08/28 14:38:43;;;;;;;;;;;34.10;91.30;;;;;;5041939;28;19940;-74
2022/08/28 14:41:11;;;;;;;;;;;34.90;91.10;;;;;;5039987;28;19971;-73
2022/08/28 14:43:37;;;;;;;;;;;35.40;90.70;;;;;;5040524;28;19925;-74